Time;durP1;ratioP1;P1;durP2;ratioP2;P2;SDS_P1;SDS_P2;PMS_P1;PMS_P2;Temp;Humidity;BMP_temperature;BMP_pressure;BME280_temperature;BME280_humidity;BME280_pressure;Samples;Min_cycle;Max_cycle;Signal;HPM_P1;HPM_P2
2023/01/25 00:01:51;;;;;;;36.65;18.08;;;;;;;-144.31;100.00;58022.63;5012766;28;20037;-56
2023/01/25 00:05:16;;;;;;;36.80;17.38;;;;;;;-144.31;100.00;58022.63;5016734;28;20069;-52
2023/01/25 00:08:40;;;;;;;35.58;18.30;;;;;;;-144.31;100.00;58022.63;5009655;28;20121;-55
2023/01/25 00:12:04;;;;;;;40.60;19.60;;;;;;;-144.31;100.00;58022.63;5012190;28;20141;-57
2023/01/25 00:15:28;;;;;;;36.80;19.60;;;;;;;-144.31;100.00;58022.63;5012878;28;20034;-55
2023/01/25 00:18:52;;;;;;;36.95;17.98;;;;;;;-144.31;100.00;58022.63;5008776;28;20049;-57
2023/01/25 00:22:17;;;;;;;38.85;17.75;;;;;;;-144.31;100.00;58022.63;5010766;28;20057;-56
2023/01/25 00:25:41;;;;;;;37.88;17.42;;;;;;;-144.31;100.00;58022.63;5016599;28;20033;-57
2023/01/25 00:29:05;;;;;;;40.85;20.58;;;;;;;-144.31;100.00;58022.63;5017608;28;20057;-54
2023/01/25 00:32:46;;;;;;;41.33;19.55;;;;;;;-144.31;100.00;58022.63;5013691;28;20038;-50
2023/01/25 00:36:19;;;;;;;38.08;18.83;;;;;;;-144.31;100.00;58022.63;5013012;28;20913;-58
2023/01/25 00:39:45;;;;;;;41.70;19.48;;;;;;;-144.31;100.00;58022.63;5010522;28;20056;-53
2023/01/25 00:43:09;;;;;;;42.85;21.25;;;;;;;-144.31;100.00;58022.63;5021772;28;20478;-52
2023/01/25 00:46:33;;;;;;;40.55;18.80;;;;;;;-144.31;100.00;58022.63;5013315;28;20103;-57
2023/01/25 00:49:57;;;;;;;43.33;18.55;;;;;;;-144.31;100.00;58022.63;5011196;28;20034;-55
2023/01/25 00:53:21;;;;;;;41.67;20.20;;;;;;;-144.31;100.00;58022.63;5017040;28;20096;-52
2023/01/25 00:56:51;;;;;;;37.25;19.00;;;;;;;-144.31;100.00;58022.63;5016095;28;20045;-56
2023/01/25 01:00:15;;;;;;;46.20;21.38;;;;;;;-144.31;100.00;58022.63;5010764;28;20037;-58
2023/01/25 01:03:39;;;;;;;45.20;19.52;;;;;;;-144.31;100.00;58022.63;5014739;28;20156;-55
2023/01/25 01:07:10;;;;;;;36.67;19.38;;;;;;;-144.31;100.00;58022.63;5008805;28;20118;-55
2023/01/25 01:10:34;;;;;;;36.67;18.25;;;;;;;-144.31;100.00;58022.63;5008087;28;20128;-54
2023/01/25 01:13:58;;;;;;;38.70;17.90;;;;;;;-144.31;100.00;58022.63;5008942;28;20033;-57
2023/01/25 01:17:22;;;;;;;45.47;19.48;;;;;;;-144.31;100.00;58022.63;5012170;28;20090;-55
2023/01/25 01:20:52;;;;;;;42.10;18.98;;;;;;;-144.31;100.00;58022.63;5016614;28;20502;-53
2023/01/25 01:24:19;;;;;;;34.85;18.45;;;;;;;-144.31;100.00;58022.63;5010782;28;20491;-52
2023/01/25 01:27:42;;;;;;;38.17;17.90;;;;;;;-144.31;100.00;58022.63;5009179;28;20580;-54
2023/01/25 01:31:09;;;;;;;43.88;19.77;;;;;;;-144.31;100.00;58022.63;5013363;28;20120;-57
2023/01/25 01:34:36;;;;;;;41.30;19.45;;;;;;;-144.31;100.00;58022.63;5019571;28;20067;-57
2023/01/25 01:38:00;;;;;;;38.85;19.05;;;;;;;-144.31;100.00;58022.63;5019884;28;20042;-56
2023/01/25 01:41:24;;;;;;;44.33;19.08;;;;;;;-144.31;100.00;58022.63;5017220;28;20509;-57
2023/01/25 01:44:50;;;;;;;39.33;17.73;;;;;;;-144.31;100.00;58022.63;5011136;28;20513;-54
2023/01/25 01:48:40;;;;;;;40.30;18.95;;;;;;;-144.31;100.00;58022.63;5012625;28;20130;-52
2023/01/25 01:52:27;;;;;;;39.90;17.63;;;;;;;-144.31;100.00;58022.63;5016784;28;20092;-53
2023/01/25 01:56:03;;;;;;;31.48;16.13;;;;;;;-144.31;100.00;58022.63;5016053;28;20056;-57
2023/01/25 01:59:41;;;;;;;35.20;14.80;;;;;;;-144.31;100.00;58022.63;5002732;28;20498;-53
2023/01/25 02:03:05;;;;;;;31.67;15.15;;;;;;;-144.31;100.00;58022.63;5018756;28;20299;-56
2023/01/25 02:06:47;;;;;;;28.10;14.32;;;;;;;-144.31;100.00;58022.63;5014378;28;20045;-53
2023/01/25 02:10:16;;;;;;;28.13;14.57;;;;;;;-144.31;100.00;58022.63;5014890;28;20423;-57
2023/01/25 02:13:42;;;;;;;27.25;12.75;;;;;;;-144.31;100.00;58022.63;5021904;28;20046;-56
2023/01/25 02:17:13;;;;;;;29.38;14.30;;;;;;;-144.31;100.00;58022.63;5019057;28;20128;-50
2023/01/25 02:20:43;;;;;;;31.70;15.20;;;;;;;-144.31;100.00;58022.63;5015359;28;20041;-58
2023/01/25 02:24:22;;;;;;;31.25;13.93;;;;;;;-144.31;100.00;58022.63;5012375;28;20050;-58
2023/01/25 02:28:08;;;;;;;29.35;14.80;;;;;;;-144.31;100.00;58022.63;5017387;28;20039;-52
2023/01/25 02:31:32;;;;;;;27.58;13.70;;;;;;;-144.31;100.00;58022.63;5012912;28;20453;-57
2023/01/25 02:34:57;;;;;;;26.52;13.18;;;;;;;-144.31;100.00;58022.63;5012799;28;20426;-57
2023/01/25 02:38:21;;;;;;;26.70;13.95;;;;;;;-144.31;100.00;58022.63;5014054;28;20164;-59
2023/01/25 02:41:49;;;;;;;30.23;13.52;;;;;;;-144.31;100.00;58022.63;5012438;28;20050;-57
2023/01/25 02:45:28;;;;;;;27.15;12.48;;;;;;;-144.31;100.00;58022.63;5013522;28;20045;-58
2023/01/25 02:48:53;;;;;;;27.90;13.23;;;;;;;-144.31;100.00;58022.63;5012533;28;20033;-54
2023/01/25 02:52:17;;;;;;;28.35;14.18;;;;;;;-144.31;100.00;58022.63;5016803;28;20087;-56
2023/01/25 02:55:42;;;;;;;28.45;13.88;;;;;;;-144.31;100.00;58022.63;5015979;28;20042;-53
2023/01/25 02:59:10;;;;;;;29.50;14.57;;;;;;;-144.31;100.00;58022.63;5017375;28;20093;-55
2023/01/25 03:02:36;;;;;;;28.10;13.10;;;;;;;-144.31;100.00;58022.63;5021888;28;20038;-57
2023/01/25 03:06:00;;;;;;;21.83;11.80;;;;;;;-144.31;100.00;58022.63;5020076;28;20045;-55
2023/01/25 03:09:24;;;;;;;24.85;12.25;;;;;;;-144.31;100.00;58022.63;5002970;28;20185;-57
2023/01/25 03:12:48;;;;;;;19.33;9.60;;;;;;;-144.31;100.00;58022.63;5018192;28;20042;-53
2023/01/25 03:16:13;;;;;;;19.38;10.10;;;;;;;-144.31;100.00;58022.63;5014365;28;20095;-53
2023/01/25 03:19:39;;;;;;;21.17;11.00;;;;;;;-144.31;100.00;58022.63;5014864;28;20029;-53
2023/01/25 03:23:04;;;;;;;21.20;10.45;;;;;;;-144.31;100.00;58022.63;5017552;28;20077;-61
2023/01/25 03:26:28;;;;;;;22.88;10.98;;;;;;;-144.31;100.00;58022.63;5012345;28;20084;-56
2023/01/25 03:30:10;;;;;;;19.35;10.63;;;;;;;-144.31;100.00;58022.63;5018939;28;20045;-51
2023/01/25 03:33:34;;;;;;;19.63;10.52;;;;;;;-144.31;100.00;58022.63;5013910;28;20202;-56
2023/01/25 03:36:58;;;;;;;22.77;10.82;;;;;;;-144.31;100.00;58022.63;5020235;28;20045;-57
2023/01/25 03:40:22;;;;;;;26.85;11.20;;;;;;;-144.31;100.00;58022.63;5013588;28;20125;-58
2023/01/25 03:43:47;;;;;;;17.20;9.15;;;;;;;-144.31;100.00;58022.63;5015406;28;20083;-58
2023/01/25 03:47:15;;;;;;;20.67;10.73;;;;;;;-144.31;100.00;58022.63;5010309;28;20041;-56
2023/01/25 03:50:39;;;;;;;19.88;9.07;;;;;;;-144.31;100.00;58022.63;5013462;28;20038;-57
2023/01/25 03:54:07;;;;;;;18.88;10.52;;;;;;;-144.31;100.00;58022.63;5011098;28;20048;-57
2023/01/25 03:57:32;;;;;;;16.67;8.80;;;;;;;-144.31;100.00;58022.63;5019167;28;20038;-55
2023/01/25 04:01:02;;;;;;;18.35;9.57;;;;;;;-144.31;100.00;58022.63;5008375;28;20061;-57
2023/01/25 04:04:26;;;;;;;17.27;10.10;;;;;;;-144.31;100.00;58022.63;5027276;28;20050;-54
2023/01/25 04:07:50;;;;;;;19.05;9.77;;;;;;;-144.31;100.00;58022.63;5013431;28;20362;-53
2023/01/25 04:11:20;;;;;;;16.48;8.68;;;;;;;-144.31;100.00;58022.63;5009223;28;20125;-57
2023/01/25 04:14:45;;;;;;;14.48;8.45;;;;;;;-144.31;100.00;58022.63;5000726;28;20044;-57
2023/01/25 04:18:16;;;;;;;18.48;8.82;;;;;;;-144.31;100.00;58022.63;5011065;28;20444;-55
2023/01/25 04:21:40;;;;;;;16.38;8.90;;;;;;;-144.31;100.00;58022.63;5013561;28;20041;-55
2023/01/25 04:25:05;;;;;;;15.52;8.80;;;;;;;-144.31;100.00;58022.63;5020292;28;20049;-52
2023/01/25 04:28:30;;;;;;;15.98;8.38;;;;;;;-144.31;100.00;58022.63;5013075;28;20041;-54
2023/01/25 04:31:55;;;;;;;14.85;8.18;;;;;;;-144.31;100.00;58022.63;5013669;28;20046;-59
2023/01/25 04:35:20;;;;;;;16.25;8.70;;;;;;;-144.31;100.00;58022.63;5027787;28;20030;-57
2023/01/25 04:38:54;;;;;;;17.20;8.50;;;;;;;-144.31;100.00;58022.63;5013901;28;20041;-53
2023/01/25 04:42:19;;;;;;;17.77;9.15;;;;;;;-144.31;100.00;58022.63;5009571;28;20115;-55
2023/01/25 04:45:46;;;;;;;15.23;8.70;;;;;;;-144.31;100.00;58022.63;5018490;28;20095;-58
2023/01/25 04:49:18;;;;;;;16.95;9.55;;;;;;;-144.31;100.00;58022.63;5016836;28;20546;-57
2023/01/25 04:52:42;;;;;;;16.15;8.23;;;;;;;-144.31;100.00;58022.63;5010139;28;20111;-55
2023/01/25 04:56:07;;;;;;;14.63;7.72;;;;;;;-144.31;100.00;58022.63;5012399;28;20380;-57
2023/01/25 04:59:39;;;;;;;13.95;7.97;;;;;;;-144.31;100.00;58022.63;5014753;28;20091;-54
2023/01/25 05:03:03;;;;;;;16.63;8.13;;;;;;;-144.31;100.00;58022.63;5011764;28;20532;-56
2023/01/25 05:06:27;;;;;;;15.23;8.50;;;;;;;-144.31;100.00;58022.63;5011718;28;20137;-57
2023/01/25 05:09:51;;;;;;;12.98;6.75;;;;;;;-144.31;100.00;58022.63;5015932;28;20156;-56
2023/01/25 05:13:18;;;;;;;19.23;8.13;;;;;;;-144.31;100.00;58022.63;5014144;28;20045;-54
2023/01/25 05:16:43;;;;;;;12.82;7.40;;;;;;;-144.31;100.00;58022.63;5011624;28;20052;-58
2023/01/25 05:20:07;;;;;;;13.18;7.15;;;;;;;-144.31;100.00;58022.63;5010281;28;20046;-54
2023/01/25 05:23:31;;;;;;;16.15;7.95;;;;;;;-144.31;100.00;58022.63;5017697;28;20045;-55
2023/01/25 05:27:06;;;;;;;17.13;8.07;;;;;;;-144.31;100.00;58022.63;5016490;28;20123;-58
2023/01/25 05:30:56;;;;;;;14.68;7.55;;;;;;;-144.31;100.00;58022.63;5008282;28;20056;-52
2023/01/25 05:34:23;;;;;;;16.40;8.07;;;;;;;-144.31;100.00;58022.63;5014899;28;20037;-50
2023/01/25 05:37:47;;;;;;;15.38;7.95;;;;;;;-144.31;100.00;58022.63;5025558;28;20030;-51
2023/01/25 05:41:18;;;;;;;16.77;9.00;;;;;;;-144.31;100.00;58022.63;5016604;28;20885;-51
2023/01/25 05:44:46;;;;;;;15.35;8.00;;;;;;;-144.31;100.00;58022.63;5012157;28;20057;-52
2023/01/25 05:48:11;;;;;;;17.85;9.10;;;;;;;-144.31;100.00;58022.63;5021411;28;20045;-55
2023/01/25 05:51:37;;;;;;;15.70;7.95;;;;;;;-144.31;100.00;58022.63;5008218;28;20031;-56
2023/01/25 05:55:02;;;;;;;13.27;7.55;;;;;;;-144.31;100.00;58022.63;5013094;28;20041;-53
2023/01/25 05:58:26;;;;;;;18.40;8.85;;;;;;;-144.31;100.00;58022.63;5028122;28;20482;-57
2023/01/25 06:01:51;;;;;;;18.30;9.23;;;;;;;-144.31;100.00;58022.63;5009625;28;20127;-52
2023/01/25 06:05:15;;;;;;;18.05;8.90;;;;;;;-144.31;100.00;58022.63;5015327;28;20050;-56
2023/01/25 06:08:40;;;;;;;17.52;8.80;;;;;;;-144.31;100.00;58022.63;5017534;28;20045;-53
2023/01/25 06:12:15;;;;;;;18.20;8.02;;;;;;;-144.31;100.00;58022.63;4993314;28;20486;-57
2023/01/25 06:15:39;;;;;;;16.95;8.00;;;;;;;-144.31;100.00;58022.63;5015163;28;20054;-58
2023/01/25 06:19:30;;;;;;;15.90;8.13;;;;;;;-144.31;100.00;58022.63;5002799;28;20070;-52
2023/01/25 06:23:08;;;;;;;15.55;8.13;;;;;;;-144.31;100.00;58022.63;5010379;28;20128;-51
2023/01/25 06:26:32;;;;;;;16.70;8.85;;;;;;;-144.31;100.00;58022.63;5010495;28;20113;-56
2023/01/25 06:29:56;;;;;;;15.35;8.23;;;;;;;-144.31;100.00;58022.63;5015690;28;20072;-53
2023/01/25 06:33:20;;;;;;;17.58;8.35;;;;;;;-144.31;100.00;58022.63;5008938;28;20037;-56
2023/01/25 06:36:44;;;;;;;13.90;7.95;;;;;;;-144.31;100.00;58022.63;5014377;28;20486;-51
2023/01/25 06:40:08;;;;;;;15.88;8.35;;;;;;;-144.31;100.00;58022.63;5015309;28;20037;-53
2023/01/25 06:43:32;;;;;;;15.98;8.48;;;;;;;-144.31;100.00;58022.63;5013703;28;20445;-55
2023/01/25 06:46:57;;;;;;;13.88;7.55;;;;;;;-144.31;100.00;58022.63;5009423;28;20053;-57
2023/01/25 06:50:21;;;;;;;16.27;8.23;;;;;;;-144.31;100.00;58022.63;5010630;28;20038;-56
2023/01/25 06:53:49;;;;;;;13.80;7.40;;;;;;;-144.31;100.00;58022.63;5010554;28;20069;-55
2023/01/25 06:57:14;;;;;;;15.52;8.23;;;;;;;-144.31;100.00;58022.63;5014359;28;20475;-55
2023/01/25 07:00:38;;;;;;;13.20;7.03;;;;;;;-144.31;100.00;58022.63;5015851;28;20125;-59
2023/01/25 07:04:02;;;;;;;13.60;7.25;;;;;;;-144.31;100.00;58022.63;5015732;28;20441;-58
2023/01/25 07:07:29;;;;;;;15.43;7.80;;;;;;;-144.31;100.00;58022.63;5017428;28;20399;-53
2023/01/25 07:10:57;;;;;;;13.90;7.85;;;;;;;-144.31;100.00;58022.63;5013101;28;20041;-56
2023/01/25 07:14:21;;;;;;;16.45;8.38;;;;;;;-144.31;100.00;58022.63;5015968;28;20769;-57
2023/01/25 07:17:45;;;;;;;19.58;9.02;;;;;;;-144.31;100.00;58022.63;5012832;28;20449;-56
2023/01/25 07:21:11;;;;;;;17.73;8.40;;;;;;;-144.31;100.00;58022.63;5013213;28;20127;-53
2023/01/25 07:24:35;;;;;;;;;;;;;;;-144.31;100.00;58022.63;5015368;28;20045;-56
2023/01/25 07:27:59;;;;;;;17.08;8.88;;;;;;;-144.31;100.00;58022.63;5012922;28;19920;-53
2023/01/25 07:31:23;;;;;;;16.88;8.88;;;;;;;-144.31;100.00;58022.63;5012990;28;20048;-57
2023/01/25 07:34:48;;;;;;;19.77;9.45;;;;;;;-144.31;100.00;58022.63;5014524;28;20196;-56
2023/01/25 07:38:12;;;;;;;18.27;9.07;;;;;;;-144.31;100.00;58022.63;5000644;28;20046;-59
2023/01/25 07:41:36;;;;;;;17.65;9.63;;;;;;;-144.31;100.00;58022.63;5013530;28;20041;-58
2023/01/25 07:45:01;;;;;;;17.42;9.05;;;;;;;-144.31;100.00;58022.63;5013294;28;20086;-57
2023/01/25 07:48:24;;;;;;;18.42;9.25;;;;;;;-144.31;100.00;58022.63;5012115;28;20176;-56
2023/01/25 07:51:48;;;;;;;17.70;8.65;;;;;;;-144.31;100.00;58022.63;5012656;28;20041;-58
2023/01/25 07:55:12;;;;;;;21.27;10.25;;;;;;;-144.31;100.00;58022.63;5009895;28;20045;-54
2023/01/25 07:58:36;;;;;;;17.63;9.55;;;;;;;-144.31;100.00;58022.63;5013403;28;20041;-55
2023/01/25 08:02:10;;;;;;;17.60;8.73;;;;;;;-144.31;100.00;58022.63;5011726;28;20050;-57
2023/01/25 08:05:34;;;;;;;17.63;9.30;;;;;;;-144.31;100.00;58022.63;5009184;28;20056;-57
2023/01/25 08:08:58;;;;;;;18.92;9.23;;;;;;;-144.31;100.00;58022.63;5012703;28;20801;-53
2023/01/25 08:12:26;;;;;;;16.80;8.98;;;;;;;-144.31;100.00;58022.63;5011977;28;20037;-56
2023/01/25 08:15:54;;;;;;;17.90;9.25;;;;;;;-144.31;100.00;58022.63;5008848;28;20037;-57
2023/01/25 08:19:19;;;;;;;19.35;9.75;;;;;;;-144.31;100.00;58022.63;5010709;28;20099;-57
2023/01/25 08:22:43;;;;;;;23.63;10.32;;;;;;;-144.31;100.00;58022.63;5007875;28;20706;-57
2023/01/25 08:26:09;;;;;;;19.30;10.65;;;;;;;-144.31;100.00;58022.63;5018327;28;20045;-57
2023/01/25 08:29:33;;;;;;;17.98;9.73;;;;;;;-144.31;100.00;58022.63;5010764;28;20048;-56
2023/01/25 08:32:57;;;;;;;17.75;9.60;;;;;;;-144.31;100.00;58022.63;5008522;28;20433;-56
2023/01/25 08:36:23;;;;;;;24.90;11.55;;;;;;;-144.31;100.00;58022.63;5008931;28;20049;-55
2023/01/25 08:39:50;;;;;;;18.30;10.45;;;;;;;-144.31;100.00;58022.63;5006468;28;20501;-56
2023/01/25 08:43:14;;;;;;;20.35;10.52;;;;;;;-144.31;100.00;58022.63;5010916;28;20728;-53
2023/01/25 08:46:38;;;;;;;21.33;10.88;;;;;;;-144.31;100.00;58022.63;5017444;28;20042;-55
2023/01/25 08:50:03;;;;;;;21.42;11.23;;;;;;;-144.31;100.00;58022.63;5008070;28;20034;-56
2023/01/25 08:53:31;;;;;;;24.73;11.75;;;;;;;-144.31;100.00;58022.63;5008109;28;20045;-55
2023/01/25 08:57:00;;;;;;;26.23;13.80;;;;;;;-144.31;100.00;58022.63;5010104;28;20061;-56
2023/01/25 09:00:24;;;;;;;22.63;11.32;;;;;;;-144.31;100.00;58022.63;5012108;28;20369;-52
2023/01/25 09:03:49;;;;;;;22.70;11.32;;;;;;;-144.31;100.00;58022.63;5007226;28;20029;-54
2023/01/25 09:07:13;;;;;;;27.67;12.48;;;;;;;-144.31;100.00;58022.63;5017713;28;20034;-56
2023/01/25 09:10:37;;;;;;;22.45;11.90;;;;;;;-144.31;100.00;58022.63;5005157;28;20144;-54
2023/01/25 09:14:01;;;;;;;21.52;11.75;;;;;;;-144.31;100.00;58022.63;5005047;28;20068;-56
2023/01/25 09:17:25;;;;;;;25.42;13.75;;;;;;;-144.31;100.00;58022.63;5010507;28;20044;-58
2023/01/25 09:20:49;;;;;;;23.55;12.98;;;;;;;-144.31;100.00;58022.63;5009207;28;20271;-57
2023/01/25 09:24:13;;;;;;;22.40;11.30;;;;;;;-144.31;100.00;58022.63;5010491;28;20123;-58
2023/01/25 09:27:39;;;;;;;23.70;11.10;;;;;;;-144.31;100.00;58022.63;5010937;28;20104;-57
2023/01/25 09:31:05;;;;;;;25.20;12.20;;;;;;;-144.31;100.00;58022.63;5011127;28;20543;-56
2023/01/25 09:35:08;;;;;;;24.88;12.32;;;;;;;-144.31;100.00;58022.63;4990038;28;20054;-54
2023/01/25 09:38:33;;;;;;;24.88;11.95;;;;;;;-144.31;100.00;58022.63;4980145;28;20133;-58
2023/01/25 09:42:17;;;;;;;25.70;13.23;;;;;;;-144.31;100.00;58022.63;5010372;28;20112;-57
2023/01/25 09:45:51;;;;;;;24.38;12.40;;;;;;;-144.31;100.00;58022.63;5010922;28;20062;-51
2023/01/25 09:49:53;;;;;;;25.52;12.65;;;;;;;-144.31;100.00;58022.63;5012018;28;20029;-53
2023/01/25 09:53:38;;;;;;;24.33;12.45;;;;;;;-144.31;100.00;58022.63;5011456;28;20061;-58
2023/01/25 09:57:28;;;;;;;28.20;14.82;;;;;;;-144.31;100.00;58022.63;5015472;28;20064;-55
2023/01/25 10:00:58;;;;;;;24.75;12.48;;;;;;;-144.31;100.00;58022.63;5013181;28;20038;-57
2023/01/25 10:04:41;;;;;;;25.90;12.30;;;;;;;-144.31;100.00;58022.63;5014028;28;20129;-56
2023/01/25 10:08:31;;;;;;;24.63;12.77;;;;;;;-144.31;100.00;58022.63;5012825;28;20068;-54
2023/01/25 10:12:20;;;;;;;24.67;12.75;;;;;;;-144.31;100.00;58022.63;5013505;28;20041;-55
2023/01/25 10:15:58;;;;;;;30.08;14.60;;;;;;;-144.31;100.00;58022.63;5012902;28;20041;-57
2023/01/25 10:19:55;;;;;;;26.35;13.65;;;;;;;-144.31;100.00;58022.63;5013808;28;20045;-59
2023/01/25 10:23:28;;;;;;;29.08;12.98;;;;;;;-144.31;100.00;58022.63;5012292;28;20483;-58
2023/01/25 10:26:55;;;;;;;28.73;12.88;;;;;;;-144.31;100.00;58022.63;5010462;28;20045;-58
2023/01/25 10:30:28;;;;;;;25.27;12.82;;;;;;;-144.31;100.00;58022.63;5012803;28;20045;-58
2023/01/25 10:33:55;;;;;;;27.13;13.05;;;;;;;-144.31;100.00;58022.63;5015226;28;20046;-56
2023/01/25 10:37:27;;;;;;;27.63;13.85;;;;;;;-144.31;100.00;58022.63;5008268;28;20040;-56
2023/01/25 10:41:05;;;;;;;26.02;12.63;;;;;;;-144.31;100.00;58022.63;5011487;28;20112;-52
2023/01/25 10:44:30;;;;;;;27.17;13.15;;;;;;;-144.31;100.00;58022.63;5012729;28;20037;-55
2023/01/25 10:48:05;;;;;;;42.15;18.70;;;;;;;-144.31;100.00;58022.63;5015694;28;20037;-58
2023/01/25 10:51:38;;;;;;;32.33;16.30;;;;;;;-144.31;100.00;58022.63;5010119;28;20095;-50
2023/01/25 10:55:12;;;;;;;25.20;13.55;;;;;;;-144.31;100.00;58022.63;5013430;28;20423;-57
2023/01/25 10:58:45;;;;;;;23.55;13.10;;;;;;;-144.31;100.00;58022.63;5010698;28;20034;-59
2023/01/25 11:02:42;;;;;;;25.30;12.80;;;;;;;-144.31;100.00;58022.63;5023066;28;20447;-55
2023/01/25 11:06:34;;;;;;;33.25;16.27;;;;;;;-144.31;100.00;58022.63;5014307;28;20048;-54
2023/01/25 11:09:59;;;;;;;35.58;16.70;;;;;;;-144.31;100.00;58022.63;5007245;28;20153;-58
2023/01/25 11:13:25;;;;;;;31.42;15.55;;;;;;;-144.31;100.00;58022.63;5010596;28;20596;-57
2023/01/25 11:16:50;;;;;;;29.75;14.63;;;;;;;-144.31;100.00;58022.63;5021253;28;20046;-57
2023/01/25 11:20:23;;;;;;;30.50;13.82;;;;;;;-144.31;100.00;58022.63;5011818;28;20049;-57
2023/01/25 11:24:15;;;;;;;29.77;14.13;;;;;;;-144.31;100.00;58022.63;5012949;28;20076;-56
2023/01/25 11:27:39;;;;;;;25.98;14.00;;;;;;;-144.31;100.00;58022.63;5013846;28;20037;-52
2023/01/25 11:31:04;;;;;;;28.50;14.05;;;;;;;-144.31;100.00;58022.63;5013185;28;20064;-57
2023/01/25 11:34:29;;;;;;;31.50;14.30;;;;;;;-144.31;100.00;58022.63;5012327;28;20046;-57
2023/01/25 11:38:16;;;;;;;27.00;13.75;;;;;;;-144.31;100.00;58022.63;5011750;28;20521;-56
2023/01/25 11:42:11;;;;;;;29.20;14.40;;;;;;;-144.31;100.00;58022.63;5012512;28;20451;-55
2023/01/25 11:46:05;;;;;;;27.02;13.95;;;;;;;-144.31;100.00;58022.63;5002561;28;20073;-55
2023/01/25 11:50:10;;;;;;;23.80;12.82;;;;;;;-144.31;100.00;58022.63;5011790;28;20052;-53
2023/01/25 11:53:59;;;;;;;26.00;14.10;;;;;;;-144.31;100.00;58022.63;5004643;28;20524;-56
2023/01/25 11:57:47;;;;;;;31.75;14.23;;;;;;;-144.31;100.00;58022.63;5010452;28;20029;-55
2023/01/25 12:01:35;;;;;;;29.67;14.70;;;;;;;-144.31;100.00;58022.63;5013809;28;20113;-56
2023/01/25 12:05:18;;;;;;;28.80;14.13;;;;;;;-144.31;100.00;58022.63;5011286;28;20134;-55
2023/01/25 12:08:44;;;;;;;35.53;16.15;;;;;;;-144.31;100.00;58022.63;5012635;28;20742;-58
2023/01/25 12:12:27;;;;;;;30.90;14.57;;;;;;;-144.31;100.00;58022.63;5012714;28;20045;-58
2023/01/25 12:15:57;;;;;;;28.02;14.30;;;;;;;-144.31;100.00;58022.63;5015145;28;20116;-57
2023/01/25 12:19:33;;;;;;;33.78;16.08;;;;;;;-144.31;100.00;58022.63;5011519;28;20069;-57
2023/01/25 12:23:34;;;;;;;32.00;16.70;;;;;;;-144.31;100.00;58022.63;5012082;28;20110;-57
2023/01/25 12:27:04;;;;;;;32.45;15.95;;;;;;;-144.31;100.00;58022.63;5011640;28;20041;-58
2023/01/25 12:30:52;;;;;;;29.95;15.45;;;;;;;-144.31;100.00;58022.63;5012519;28;20124;-57
2023/01/25 12:34:49;;;;;;;31.60;14.77;;;;;;;-144.31;100.00;58022.63;5011741;28;20038;-52
2023/01/25 12:38:30;;;;;;;35.97;17.92;;;;;;;-144.31;100.00;58022.63;5010987;28;20410;-58
2023/01/25 12:42:03;;;;;;;38.20;18.42;;;;;;;-144.31;100.00;58022.63;5014532;28;20047;-58
2023/01/25 12:45:50;;;;;;;29.48;15.38;;;;;;;-144.31;100.00;58022.63;5010578;28;20056;-55
2023/01/25 12:49:21;;;;;;;30.42;14.00;;;;;;;-144.31;100.00;58022.63;5009443;28;20166;-56
2023/01/25 12:52:48;;;;;;;27.02;13.85;;;;;;;-144.31;100.00;58022.63;5012661;28;20052;-58
2023/01/25 12:56:23;;;;;;;32.17;15.43;;;;;;;-144.31;100.00;58022.63;5012479;28;20041;-55
2023/01/25 12:59:55;;;;;;;28.40;14.70;;;;;;;-144.31;100.00;58022.63;5011292;28;20045;-56
2023/01/25 13:03:25;;;;;;;29.52;14.43;;;;;;;-144.31;100.00;58022.63;5013187;28;20042;-59
2023/01/25 13:07:11;;;;;;;33.25;15.25;;;;;;;-144.31;100.00;58022.63;5011483;28;20104;-58
2023/01/25 13:10:52;;;;;;;35.20;16.08;;;;;;;-144.31;100.00;58022.63;5009759;28;20041;-54
2023/01/25 13:14:28;;;;;;;35.08;16.13;;;;;;;-144.31;100.00;58022.63;5011118;28;20046;-56
2023/01/25 13:17:53;;;;;;;33.53;14.70;;;;;;;-144.31;100.00;58022.63;5012656;28;20545;-59
2023/01/25 13:21:36;;;;;;;34.15;14.73;;;;;;;-144.31;100.00;58022.63;5011389;28;20136;-56
2023/01/25 13:25:19;;;;;;;35.33;16.50;;;;;;;-144.31;100.00;58022.63;5010972;28;20033;-59
2023/01/25 13:28:47;;;;;;;34.50;18.48;;;;;;;-144.31;100.00;58022.63;5010949;28;20161;-57
2023/01/25 13:32:29;;;;;;;35.30;15.75;;;;;;;-144.31;100.00;58022.63;5008711;28;20037;-58
2023/01/25 13:35:54;;;;;;;42.00;21.98;;;;;;;-144.31;100.00;58022.63;5013129;28;20040;-55
2023/01/25 13:39:31;;;;;;;38.88;17.67;;;;;;;-144.31;100.00;58022.63;5011691;28;20386;-56
2023/01/25 13:42:58;;;;;;;36.97;17.98;;;;;;;-144.31;100.00;58022.63;5019277;28;20125;-54
2023/01/25 13:46:22;;;;;;;37.10;19.60;;;;;;;-144.31;100.00;58022.63;5012054;28;20129;-57
2023/01/25 13:49:51;;;;;;;35.85;16.92;;;;;;;-144.31;100.00;58022.63;5012824;28;20046;-57
2023/01/25 13:53:20;;;;;;;41.47;16.90;;;;;;;-144.31;100.00;58022.63;5012729;28;20380;-55
2023/01/25 13:57:01;;;;;;;36.15;15.52;;;;;;;-144.31;100.00;58022.63;5012506;28;20049;-58
2023/01/25 14:00:25;;;;;;;36.92;18.08;;;;;;;-144.31;100.00;58022.63;5012351;28;20091;-58
2023/01/25 14:03:54;;;;;;;36.95;17.10;;;;;;;-144.31;100.00;58022.63;5013549;28;20084;-54
2023/01/25 14:07:24;;;;;;;34.15;16.70;;;;;;;-144.31;100.00;58022.63;5015345;28;20053;-56
2023/01/25 14:10:50;;;;;;;34.83;15.77;;;;;;;-144.31;100.00;58022.63;5012046;28;20037;-57
2023/01/25 14:14:25;;;;;;;36.90;18.30;;;;;;;-144.31;100.00;58022.63;5016369;28;20136;-57
2023/01/25 14:18:26;;;;;;;36.87;15.90;;;;;;;-144.31;100.00;58022.63;5017345;28;20087;-53
2023/01/25 14:22:08;;;;;;;33.15;15.80;;;;;;;-144.31;100.00;58022.63;5009612;28;20053;-58
2023/01/25 14:25:32;;;;;;;31.15;14.73;;;;;;;-144.31;100.00;58022.63;5011243;28;20667;-56
2023/01/25 14:28:58;;;;;;;33.40;16.00;;;;;;;-144.31;100.00;58022.63;5009364;28;20070;-57
2023/01/25 14:32:25;;;;;;;35.73;17.33;;;;;;;-144.31;100.00;58022.63;5020530;28;20414;-59
2023/01/25 14:35:49;;;;;;;29.27;15.63;;;;;;;-144.31;100.00;58022.63;5013212;28;20037;-55
2023/01/25 14:39:26;;;;;;;48.85;33.55;;;;;;;-144.31;100.00;58022.63;5011429;28;20038;-57
2023/01/25 14:42:52;;;;;;;35.70;15.23;;;;;;;-144.31;100.00;58022.63;5015625;28;20693;-55
2023/01/25 14:46:22;;;;;;;39.40;17.42;;;;;;;-144.31;100.00;58022.63;5022752;28;20042;-53
2023/01/25 14:49:46;;;;;;;40.25;17.65;;;;;;;-144.31;100.00;58022.63;5015770;28;20072;-57
2023/01/25 14:53:18;;;;;;;38.90;16.52;;;;;;;-144.31;100.00;58022.63;4999710;28;20045;-57
2023/01/25 14:56:47;;;;;;;40.22;17.35;;;;;;;-144.31;100.00;58022.63;5015077;28;20050;-54
2023/01/25 15:00:19;;;;;;;36.95;17.95;;;;;;;-144.31;100.00;58022.63;5021394;28;20152;-56
2023/01/25 15:03:45;;;;;;;40.05;17.20;;;;;;;-144.31;100.00;58022.63;5023228;28;20073;-55
2023/01/25 15:07:30;;;;;;;45.92;22.10;;;;;;;-144.31;100.00;58022.63;5019824;28;20364;-56
2023/01/25 15:11:44;;;;;;;43.22;19.92;;;;;;;-144.31;100.00;58022.63;5015724;28;20038;-55
2023/01/25 15:15:19;;;;;;;51.50;24.17;;;;;;;-144.31;100.00;58022.63;5013737;28;20061;-55
2023/01/25 15:18:44;;;;;;;35.17;17.20;;;;;;;-144.31;100.00;58022.63;5021287;28;20192;-55
2023/01/25 15:22:16;;;;;;;42.38;18.05;;;;;;;-144.31;100.00;58022.63;5014726;28;20038;-58
2023/01/25 15:25:49;;;;;;;41.67;17.88;;;;;;;-144.31;100.00;58022.63;5012783;28;20399;-57
2023/01/25 15:29:14;;;;;;;45.20;21.27;;;;;;;-144.31;100.00;58022.63;5022405;28;20054;-58
2023/01/25 15:32:38;;;;;;;57.30;25.35;;;;;;;-144.31;100.00;58022.63;5013936;28;20037;-54
2023/01/25 15:36:03;;;;;;;62.78;28.45;;;;;;;-144.31;100.00;58022.63;5010951;28;20070;-57
2023/01/25 15:39:27;;;;;;;57.40;25.65;;;;;;;-144.31;100.00;58022.63;5015654;28;20045;-54